sensor_id;sensor_type;location;lat;lon;timestamp;P1;durP1;ratioP1;P2;durP2;ratioP2
3659;SDS011;1846;51.482;7.224;2023-06-04T00:02:10;2.70;;;2.30;;
3659;SDS011;1846;51.482;7.224;2023-06-04T00:04:37;1.90;;;1.80;;
3659;SDS011;1846;51.482;7.224;2023-06-04T00:07:04;2.70;;;2.50;;
3659;SDS011;1846;51.482;7.224;2023-06-04T00:09:33;3.50;;;2.20;;
3659;SDS011;1846;51.482;7.224;2023-06-04T00:12:00;3.60;;;2.75;;
3659;SDS011;1846;51.482;7.224;2023-06-04T00:14:27;3.88;;;2.03;;
3659;SDS011;1846;51.482;7.224;2023-06-04T00:16:54;2.43;;;1.90;;
3659;SDS011;1846;51.482;7.224;2023-06-04T00:19:21;2.65;;;1.60;;
3659;SDS011;1846;51.482;7.224;2023-06-04T00:21:48;1.70;;;1.60;;
3659;SDS011;1846;51.482;7.224;2023-06-04T00:24:16;2.83;;;1.60;;
3659;SDS011;1846;51.482;7.224;2023-06-04T00:26:45;1.70;;;1.60;;
3659;SDS011;1846;51.482;7.224;2023-06-04T00:29:12;1.90;;;1.70;;
3659;SDS011;1846;51.482;7.224;2023-06-04T00:31:39;1.67;;;1.58;;
3659;SDS011;1846;51.482;7.224;2023-06-04T00:34:06;5.10;;;1.70;;
3659;SDS011;1846;51.482;7.224;2023-06-04T00:36:33;5.50;;;1.80;;
3659;SDS011;1846;51.482;7.224;2023-06-04T00:39:00;1.13;;;1.00;;
3659;SDS011;1846;51.482;7.224;2023-06-04T00:41:27;1.90;;;1.63;;
3659;SDS011;1846;51.482;7.224;2023-06-04T00:43:56;5.38;;;1.83;;
3659;SDS011;1846;51.482;7.224;2023-06-04T00:46:23;1.63;;;1.52;;
3659;SDS011;1846;51.482;7.224;2023-06-04T00:48:52;1.30;;;1.20;;
3659;SDS011;1846;51.482;7.224;2023-06-04T00:51:19;2.40;;;1.40;;
3659;SDS011;1846;51.482;7.224;2023-06-04T00:53:46;2.70;;;1.75;;
3659;SDS011;1846;51.482;7.224;2023-06-04T00:56:14;2.10;;;1.45;;
3659;SDS011;1846;51.482;7.224;2023-06-04T00:58:42;1.75;;;1.65;;
3659;SDS011;1846;51.482;7.224;2023-06-04T01:01:12;3.00;;;1.50;;
3659;SDS011;1846;51.482;7.224;2023-06-04T01:03:47;2.20;;;1.80;;
3659;SDS011;1846;51.482;7.224;2023-06-04T01:06:19;2.20;;;1.70;;
3659;SDS011;1846;51.482;7.224;2023-06-04T01:08:52;2.28;;;1.60;;
3659;SDS011;1846;51.482;7.224;2023-06-04T01:11:30;3.55;;;1.30;;
3659;SDS011;1846;51.482;7.224;2023-06-04T01:13:58;3.00;;;1.40;;
3659;SDS011;1846;51.482;7.224;2023-06-04T01:16:27;2.55;;;1.60;;
3659;SDS011;1846;51.482;7.224;2023-06-04T01:18:59;2.42;;;1.85;;
3659;SDS011;1846;51.482;7.224;2023-06-04T01:21:29;1.50;;;1.40;;
3659;SDS011;1846;51.482;7.224;2023-06-04T01:24:00;1.77;;;1.60;;
3659;SDS011;1846;51.482;7.224;2023-06-04T01:26:32;1.90;;;1.50;;
3659;SDS011;1846;51.482;7.224;2023-06-04T01:28:59;2.10;;;1.90;;
3659;SDS011;1846;51.482;7.224;2023-06-04T01:31:29;2.13;;;1.88;;
3659;SDS011;1846;51.482;7.224;2023-06-04T01:33:58;1.60;;;1.50;;
3659;SDS011;1846;51.482;7.224;2023-06-04T01:36:25;3.22;;;2.03;;
3659;SDS011;1846;51.482;7.224;2023-06-04T01:38:52;4.00;;;2.10;;
3659;SDS011;1846;51.482;7.224;2023-06-04T01:41:18;2.80;;;1.80;;
3659;SDS011;1846;51.482;7.224;2023-06-04T01:43:45;3.10;;;1.90;;
3659;SDS011;1846;51.482;7.224;2023-06-04T01:46:13;12.73;;;1.70;;
3659;SDS011;1846;51.482;7.224;2023-06-04T01:48:41;2.42;;;1.80;;
3659;SDS011;1846;51.482;7.224;2023-06-04T01:51:08;1.80;;;1.70;;
3659;SDS011;1846;51.482;7.224;2023-06-04T01:53:35;4.00;;;1.70;;
3659;SDS011;1846;51.482;7.224;2023-06-04T01:56:02;2.00;;;1.90;;
3659;SDS011;1846;51.482;7.224;2023-06-04T01:58:29;5.68;;;2.20;;
3659;SDS011;1846;51.482;7.224;2023-06-04T02:00:57;6.80;;;2.03;;
3659;SDS011;1846;51.482;7.224;2023-06-04T02:03:25;1.95;;;1.85;;
3659;SDS011;1846;51.482;7.224;2023-06-04T02:05:54;3.45;;;1.67;;
3659;SDS011;1846;51.482;7.224;2023-06-04T02:08:20;3.90;;;2.20;;
3659;SDS011;1846;51.482;7.224;2023-06-04T02:10:50;2.70;;;2.40;;
3659;SDS011;1846;51.482;7.224;2023-06-04T02:13:18;3.10;;;1.70;;
3659;SDS011;1846;51.482;7.224;2023-06-04T02:15:45;4.30;;;2.28;;
3659;SDS011;1846;51.482;7.224;2023-06-04T02:18:12;2.58;;;2.05;;
3659;SDS011;1846;51.482;7.224;2023-06-04T02:20:42;3.10;;;1.85;;
3659;SDS011;1846;51.482;7.224;2023-06-04T02:23:11;3.00;;;2.10;;
3659;SDS011;1846;51.482;7.224;2023-06-04T02:25:39;4.50;;;2.30;;
3659;SDS011;1846;51.482;7.224;2023-06-04T02:28:06;2.65;;;1.98;;
3659;SDS011;1846;51.482;7.224;2023-06-04T02:30:34;2.23;;;2.10;;
3659;SDS011;1846;51.482;7.224;2023-06-04T02:33:00;2.78;;;2.40;;
3659;SDS011;1846;51.482;7.224;2023-06-04T02:35:29;3.10;;;2.15;;
3659;SDS011;1846;51.482;7.224;2023-06-04T02:37:57;2.38;;;1.80;;
3659;SDS011;1846;51.482;7.224;2023-06-04T02:40:25;2.53;;;2.33;;
3659;SDS011;1846;51.482;7.224;2023-06-04T02:42:53;4.45;;;2.30;;
3659;SDS011;1846;51.482;7.224;2023-06-04T02:45:20;4.40;;;2.30;;
3659;SDS011;1846;51.482;7.224;2023-06-04T02:47:48;3.30;;;2.40;;
3659;SDS011;1846;51.482;7.224;2023-06-04T02:50:15;4.35;;;2.10;;
3659;SDS011;1846;51.482;7.224;2023-06-04T02:52:42;2.40;;;2.20;;
3659;SDS011;1846;51.482;7.224;2023-06-04T02:55:09;2.40;;;2.20;;
3659;SDS011;1846;51.482;7.224;2023-06-04T02:57:39;3.35;;;2.10;;
3659;SDS011;1846;51.482;7.224;2023-06-04T03:00:08;5.00;;;2.65;;
3659;SDS011;1846;51.482;7.224;2023-06-04T03:02:38;4.00;;;2.90;;
3659;SDS011;1846;51.482;7.224;2023-06-04T03:05:07;3.03;;;2.10;;
3659;SDS011;1846;51.482;7.224;2023-06-04T03:07:36;5.38;;;2.00;;
3659;SDS011;1846;51.482;7.224;2023-06-04T03:10:03;4.47;;;2.60;;
3659;SDS011;1846;51.482;7.224;2023-06-04T03:12:31;2.40;;;2.17;;
3659;SDS011;1846;51.482;7.224;2023-06-04T03:14:59;3.45;;;2.90;;
3659;SDS011;1846;51.482;7.224;2023-06-04T03:17:26;4.57;;;2.20;;
3659;SDS011;1846;51.482;7.224;2023-06-04T03:19:53;4.20;;;2.30;;
3659;SDS011;1846;51.482;7.224;2023-06-04T03:22:21;3.25;;;2.90;;
3659;SDS011;1846;51.482;7.224;2023-06-04T03:24:48;2.70;;;2.35;;
3659;SDS011;1846;51.482;7.224;2023-06-04T03:27:15;5.63;;;2.60;;
3659;SDS011;1846;51.482;7.224;2023-06-04T03:29:42;4.07;;;2.80;;
3659;SDS011;1846;51.482;7.224;2023-06-04T03:32:12;2.20;;;2.00;;
3659;SDS011;1846;51.482;7.224;2023-06-04T03:34:41;5.53;;;2.20;;
3659;SDS011;1846;51.482;7.224;2023-06-04T03:37:08;2.60;;;2.40;;
3659;SDS011;1846;51.482;7.224;2023-06-04T03:39:35;2.60;;;2.40;;
3659;SDS011;1846;51.482;7.224;2023-06-04T03:42:02;3.00;;;2.20;;
3659;SDS011;1846;51.482;7.224;2023-06-04T03:44:29;3.08;;;2.70;;
3659;SDS011;1846;51.482;7.224;2023-06-04T03:46:56;2.22;;;2.10;;
3659;SDS011;1846;51.482;7.224;2023-06-04T03:49:25;3.50;;;2.25;;
3659;SDS011;1846;51.482;7.224;2023-06-04T03:51:52;2.55;;;2.35;;
3659;SDS011;1846;51.482;7.224;2023-06-04T03:54:19;3.17;;;2.00;;
3659;SDS011;1846;51.482;7.224;2023-06-04T03:56:46;4.77;;;2.40;;
3659;SDS011;1846;51.482;7.224;2023-06-04T03:59:13;2.55;;;2.30;;
3659;SDS011;1846;51.482;7.224;2023-06-04T04:01:41;2.78;;;2.30;;
3659;SDS011;1846;51.482;7.224;2023-06-04T04:04:08;3.90;;;2.50;;
3659;SDS011;1846;51.482;7.224;2023-06-04T04:06:36;3.03;;;2.83;;
3659;SDS011;1846;51.482;7.224;2023-06-04T04:09:03;2.95;;;2.75;;
3659;SDS011;1846;51.482;7.224;2023-06-04T04:11:31;3.00;;;2.70;;
3659;SDS011;1846;51.482;7.224;2023-06-04T04:13:58;2.60;;;2.40;;
3659;SDS011;1846;51.482;7.224;2023-06-04T04:16:28;3.92;;;2.50;;
3659;SDS011;1846;51.482;7.224;2023-06-04T04:18:55;2.70;;;2.50;;
3659;SDS011;1846;51.482;7.224;2023-06-04T04:21:22;2.90;;;2.60;;
3659;SDS011;1846;51.482;7.224;2023-06-04T04:23:51;5.30;;;2.50;;
3659;SDS011;1846;51.482;7.224;2023-06-04T04:26:18;4.18;;;2.65;;
3659;SDS011;1846;51.482;7.224;2023-06-04T04:28:45;3.28;;;2.97;;
3659;SDS011;1846;51.482;7.224;2023-06-04T04:31:12;3.85;;;2.78;;
3659;SDS011;1846;51.482;7.224;2023-06-04T04:33:39;4.20;;;2.83;;
3659;SDS011;1846;51.482;7.224;2023-06-04T04:36:07;3.15;;;2.50;;
3659;SDS011;1846;51.482;7.224;2023-06-04T04:38:38;2.90;;;2.55;;
3659;SDS011;1846;51.482;7.224;2023-06-04T04:41:06;2.80;;;2.60;;
3659;SDS011;1846;51.482;7.224;2023-06-04T04:43:34;3.57;;;2.80;;
3659;SDS011;1846;51.482;7.224;2023-06-04T04:46:04;4.15;;;3.00;;
3659;SDS011;1846;51.482;7.224;2023-06-04T04:48:31;4.30;;;3.00;;
3659;SDS011;1846;51.482;7.224;2023-06-04T04:50:58;3.65;;;2.30;;
3659;SDS011;1846;51.482;7.224;2023-06-04T04:53:26;4.30;;;3.15;;
3659;SDS011;1846;51.482;7.224;2023-06-04T04:55:53;3.30;;;2.50;;
3659;SDS011;1846;51.482;7.224;2023-06-04T04:58:21;4.60;;;3.15;;
3659;SDS011;1846;51.482;7.224;2023-06-04T05:00:48;3.40;;;2.70;;
3659;SDS011;1846;51.482;7.224;2023-06-04T05:03:19;3.00;;;2.70;;
3659;SDS011;1846;51.482;7.224;2023-06-04T05:05:46;2.70;;;2.47;;
3659;SDS011;1846;51.482;7.224;2023-06-04T05:08:13;4.70;;;3.15;;
3659;SDS011;1846;51.482;7.224;2023-06-04T05:10:40;4.00;;;3.00;;
3659;SDS011;1846;51.482;7.224;2023-06-04T05:13:07;4.00;;;3.30;;
3659;SDS011;1846;51.482;7.224;2023-06-04T05:15:37;2.45;;;2.22;;
3659;SDS011;1846;51.482;7.224;2023-06-04T05:18:05;5.10;;;2.45;;
3659;SDS011;1846;51.482;7.224;2023-06-04T05:20:32;5.28;;;2.88;;
3659;SDS011;1846;51.482;7.224;2023-06-04T05:23:04;2.40;;;2.30;;
3659;SDS011;1846;51.482;7.224;2023-06-04T05:25:31;3.80;;;2.80;;
3659;SDS011;1846;51.482;7.224;2023-06-04T05:27:58;3.00;;;2.50;;
3659;SDS011;1846;51.482;7.224;2023-06-04T05:30:25;4.82;;;2.40;;
3659;SDS011;1846;51.482;7.224;2023-06-04T05:32:54;3.40;;;2.85;;
3659;SDS011;1846;51.482;7.224;2023-06-04T05:35:21;5.88;;;3.22;;
3659;SDS011;1846;51.482;7.224;2023-06-04T05:37:48;2.50;;;2.30;;
3659;SDS011;1846;51.482;7.224;2023-06-04T05:40:18;3.65;;;2.50;;
3659;SDS011;1846;51.482;7.224;2023-06-04T05:42:46;5.03;;;2.40;;
3659;SDS011;1846;51.482;7.224;2023-06-04T05:45:13;3.38;;;2.47;;
3659;SDS011;1846;51.482;7.224;2023-06-04T05:47:40;4.00;;;2.42;;
3659;SDS011;1846;51.482;7.224;2023-06-04T05:50:09;3.20;;;2.70;;
3659;SDS011;1846;51.482;7.224;2023-06-04T05:52:36;2.70;;;2.20;;
3659;SDS011;1846;51.482;7.224;2023-06-04T05:55:04;2.70;;;2.50;;
3659;SDS011;1846;51.482;7.224;2023-06-04T05:57:33;2.53;;;2.33;;
3659;SDS011;1846;51.482;7.224;2023-06-04T06:00:00;2.10;;;2.00;;
3659;SDS011;1846;51.482;7.224;2023-06-04T06:02:27;3.40;;;2.30;;
3659;SDS011;1846;51.482;7.224;2023-06-04T06:04:53;2.70;;;2.50;;
3659;SDS011;1846;51.482;7.224;2023-06-04T06:07:22;2.53;;;2.33;;
3659;SDS011;1846;51.482;7.224;2023-06-04T06:09:49;3.10;;;2.00;;
3659;SDS011;1846;51.482;7.224;2023-06-04T06:12:16;2.40;;;2.20;;
3659;SDS011;1846;51.482;7.224;2023-06-04T06:14:43;3.10;;;2.20;;
3659;SDS011;1846;51.482;7.224;2023-06-04T06:17:10;3.50;;;2.30;;
3659;SDS011;1846;51.482;7.224;2023-06-04T06:19:37;2.40;;;2.13;;
3659;SDS011;1846;51.482;7.224;2023-06-04T06:22:05;3.10;;;2.20;;
3659;SDS011;1846;51.482;7.224;2023-06-04T06:24:33;4.50;;;2.13;;
3659;SDS011;1846;51.482;7.224;2023-06-04T06:27:00;2.90;;;1.92;;
3659;SDS011;1846;51.482;7.224;2023-06-04T06:29:27;2.25;;;2.13;;
3659;SDS011;1846;51.482;7.224;2023-06-04T06:31:54;2.60;;;1.80;;
3659;SDS011;1846;51.482;7.224;2023-06-04T06:34:21;4.23;;;2.17;;
3659;SDS011;1846;51.482;7.224;2023-06-04T06:36:49;6.23;;;2.20;;
3659;SDS011;1846;51.482;7.224;2023-06-04T06:39:16;2.00;;;1.90;;
3659;SDS011;1846;51.482;7.224;2023-06-04T06:41:45;2.28;;;2.08;;
3659;SDS011;1846;51.482;7.224;2023-06-04T06:44:12;1.83;;;1.50;;
3659;SDS011;1846;51.482;7.224;2023-06-04T06:46:39;6.55;;;1.80;;
3659;SDS011;1846;51.482;7.224;2023-06-04T06:49:07;1.63;;;1.50;;
3659;SDS011;1846;51.482;7.224;2023-06-04T06:51:34;2.40;;;2.20;;
3659;SDS011;1846;51.482;7.224;2023-06-04T06:54:01;2.25;;;2.00;;
3659;SDS011;1846;51.482;7.224;2023-06-04T06:56:28;2.10;;;1.80;;
3659;SDS011;1846;51.482;7.224;2023-06-04T06:58:57;2.20;;;2.00;;
3659;SDS011;1846;51.482;7.224;2023-06-04T07:01:24;1.88;;;1.77;;
3659;SDS011;1846;51.482;7.224;2023-06-04T07:03:51;2.92;;;2.00;;
3659;SDS011;1846;51.482;7.224;2023-06-04T07:06:18;1.90;;;1.80;;
3659;SDS011;1846;51.482;7.224;2023-06-04T07:08:45;3.83;;;1.70;;
3659;SDS011;1846;51.482;7.224;2023-06-04T07:11:14;2.45;;;1.85;;
3659;SDS011;1846;51.482;7.224;2023-06-04T07:13:42;4.70;;;2.03;;
3659;SDS011;1846;51.482;7.224;2023-06-04T07:16:10;2.77;;;1.93;;
3659;SDS011;1846;51.482;7.224;2023-06-04T07:18:37;1.90;;;1.80;;
3659;SDS011;1846;51.482;7.224;2023-06-04T07:21:04;4.68;;;1.67;;
3659;SDS011;1846;51.482;7.224;2023-06-04T07:23:31;2.58;;;1.67;;
3659;SDS011;1846;51.482;7.224;2023-06-04T07:25:58;2.25;;;1.40;;
3659;SDS011;1846;51.482;7.224;2023-06-04T07:28:28;1.80;;;1.70;;
3659;SDS011;1846;51.482;7.224;2023-06-04T07:30:55;1.70;;;1.60;;
3659;SDS011;1846;51.482;7.224;2023-06-04T07:33:24;1.83;;;1.73;;
3659;SDS011;1846;51.482;7.224;2023-06-04T07:35:51;2.35;;;1.90;;
3659;SDS011;1846;51.482;7.224;2023-06-04T07:38:18;3.97;;;1.65;;
3659;SDS011;1846;51.482;7.224;2023-06-04T07:40:45;2.00;;;1.73;;
3659;SDS011;1846;51.482;7.224;2023-06-04T07:43:13;1.60;;;1.50;;
3659;SDS011;1846;51.482;7.224;2023-06-04T07:45:40;2.88;;;1.70;;
3659;SDS011;1846;51.482;7.224;2023-06-04T07:48:08;5.40;;;1.90;;
3659;SDS011;1846;51.482;7.224;2023-06-04T07:50:37;2.33;;;1.52;;
3659;SDS011;1846;51.482;7.224;2023-06-04T07:53:05;2.17;;;1.52;;
3659;SDS011;1846;51.482;7.224;2023-06-04T07:55:32;3.20;;;1.80;;
3659;SDS011;1846;51.482;7.224;2023-06-04T07:58:00;4.15;;;2.25;;
3659;SDS011;1846;51.482;7.224;2023-06-04T08:00:27;2.40;;;1.90;;
3659;SDS011;1846;51.482;7.224;2023-06-04T08:02:54;2.53;;;1.80;;
3659;SDS011;1846;51.482;7.224;2023-06-04T08:05:22;2.90;;;1.75;;
3659;SDS011;1846;51.482;7.224;2023-06-04T08:07:50;2.80;;;2.20;;
3659;SDS011;1846;51.482;7.224;2023-06-04T08:10:18;5.22;;;2.22;;
3659;SDS011;1846;51.482;7.224;2023-06-04T08:12:45;3.42;;;1.90;;
3659;SDS011;1846;51.482;7.224;2023-06-04T08:15:12;2.35;;;2.00;;
3659;SDS011;1846;51.482;7.224;2023-06-04T08:17:39;2.85;;;2.00;;
3659;SDS011;1846;51.482;7.224;2023-06-04T08:20:07;4.55;;;2.10;;
3659;SDS011;1846;51.482;7.224;2023-06-04T08:22:35;2.10;;;1.80;;
3659;SDS011;1846;51.482;7.224;2023-06-04T08:25:03;4.40;;;2.42;;
3659;SDS011;1846;51.482;7.224;2023-06-04T08:27:31;3.33;;;2.57;;
3659;SDS011;1846;51.482;7.224;2023-06-04T08:29:58;3.25;;;2.42;;
3659;SDS011;1846;51.482;7.224;2023-06-04T08:32:25;4.78;;;2.58;;
3659;SDS011;1846;51.482;7.224;2023-06-04T08:34:52;3.42;;;2.67;;
3659;SDS011;1846;51.482;7.224;2023-06-04T08:37:19;3.20;;;2.70;;
3659;SDS011;1846;51.482;7.224;2023-06-04T08:39:46;3.10;;;2.80;;
3659;SDS011;1846;51.482;7.224;2023-06-04T08:42:15;3.00;;;2.80;;
3659;SDS011;1846;51.482;7.224;2023-06-04T08:44:49;4.53;;;2.90;;
3659;SDS011;1846;51.482;7.224;2023-06-04T08:47:18;3.10;;;2.90;;
3659;SDS011;1846;51.482;7.224;2023-06-04T08:49:47;3.38;;;3.10;;
3659;SDS011;1846;51.482;7.224;2023-06-04T08:52:16;4.20;;;3.00;;
3659;SDS011;1846;51.482;7.224;2023-06-04T08:54:47;4.82;;;3.35;;
3659;SDS011;1846;51.482;7.224;2023-06-04T08:57:16;3.08;;;2.88;;
3659;SDS011;1846;51.482;7.224;2023-06-04T08:59:44;4.78;;;3.80;;
3659;SDS011;1846;51.482;7.224;2023-06-04T09:02:12;3.40;;;3.10;;
3659;SDS011;1846;51.482;7.224;2023-06-04T09:04:40;3.38;;;3.08;;
3659;SDS011;1846;51.482;7.224;2023-06-04T09:07:08;4.00;;;3.35;;
3659;SDS011;1846;51.482;7.224;2023-06-04T09:09:37;4.00;;;3.53;;
3659;SDS011;1846;51.482;7.224;2023-06-04T09:12:06;3.40;;;2.90;;
3659;SDS011;1846;51.482;7.224;2023-06-04T09:14:37;6.82;;;3.08;;
3659;SDS011;1846;51.482;7.224;2023-06-04T09:17:04;3.47;;;2.90;;
3659;SDS011;1846;51.482;7.224;2023-06-04T09:19:31;12.60;;;3.20;;
3659;SDS011;1846;51.482;7.224;2023-06-04T09:21:59;3.67;;;2.80;;
3659;SDS011;1846;51.482;7.224;2023-06-04T09:24:38;3.45;;;3.15;;
3659;SDS011;1846;51.482;7.224;2023-06-04T09:27:09;3.40;;;3.20;;
3659;SDS011;1846;51.482;7.224;2023-06-04T09:29:38;6.75;;;3.45;;
3659;SDS011;1846;51.482;7.224;2023-06-04T09:32:05;7.10;;;3.55;;
3659;SDS011;1846;51.482;7.224;2023-06-04T09:34:32;5.10;;;3.28;;
3659;SDS011;1846;51.482;7.224;2023-06-04T09:37:00;3.20;;;2.90;;
3659;SDS011;1846;51.482;7.224;2023-06-04T09:39:27;4.28;;;2.75;;
3659;SDS011;1846;51.482;7.224;2023-06-04T09:41:57;3.97;;;3.35;;
3659;SDS011;1846;51.482;7.224;2023-06-04T09:44:25;3.63;;;3.00;;
3659;SDS011;1846;51.482;7.224;2023-06-04T09:46:54;3.23;;;2.93;;
3659;SDS011;1846;51.482;7.224;2023-06-04T09:49:21;3.30;;;2.90;;
3659;SDS011;1846;51.482;7.224;2023-06-04T09:51:49;3.43;;;2.50;;
3659;SDS011;1846;51.482;7.224;2023-06-04T09:54:16;3.30;;;3.00;;
3659;SDS011;1846;51.482;7.224;2023-06-04T09:56:43;3.83;;;3.42;;
3659;SDS011;1846;51.482;7.224;2023-06-04T09:59:10;4.80;;;2.10;;
3659;SDS011;1846;51.482;7.224;2023-06-04T10:01:40;3.20;;;2.10;;
3659;SDS011;1846;51.482;7.224;2023-06-04T10:04:09;3.15;;;2.10;;
3659;SDS011;1846;51.482;7.224;2023-06-04T10:06:39;3.80;;;1.60;;
3659;SDS011;1846;51.482;7.224;2023-06-04T10:09:08;2.47;;;2.27;;
3659;SDS011;1846;51.482;7.224;2023-06-04T10:11:37;5.32;;;2.25;;
3659;SDS011;1846;51.482;7.224;2023-06-04T10:14:07;3.07;;;2.87;;
3659;SDS011;1846;51.482;7.224;2023-06-04T10:16:40;3.08;;;2.70;;
3659;SDS011;1846;51.482;7.224;2023-06-04T10:19:10;3.90;;;2.38;;
3659;SDS011;1846;51.482;7.224;2023-06-04T10:21:40;4.30;;;2.47;;
3659;SDS011;1846;51.482;7.224;2023-06-04T10:24:07;6.57;;;2.70;;
3659;SDS011;1846;51.482;7.224;2023-06-04T10:26:34;2.70;;;2.50;;
3659;SDS011;1846;51.482;7.224;2023-06-04T10:29:03;3.40;;;2.50;;
3659;SDS011;1846;51.482;7.224;2023-06-04T10:31:30;4.90;;;2.70;;
3659;SDS011;1846;51.482;7.224;2023-06-04T10:33:57;8.50;;;3.03;;
3659;SDS011;1846;51.482;7.224;2023-06-04T10:36:26;2.80;;;2.60;;
3659;SDS011;1846;51.482;7.224;2023-06-04T10:38:54;4.60;;;2.40;;
3659;SDS011;1846;51.482;7.224;2023-06-04T10:41:22;4.88;;;2.40;;
3659;SDS011;1846;51.482;7.224;2023-06-04T10:43:51;4.22;;;2.30;;
3659;SDS011;1846;51.482;7.224;2023-06-04T10:46:36;2.30;;;2.20;;
3659;SDS011;1846;51.482;7.224;2023-06-04T10:49:04;2.70;;;2.27;;
3659;SDS011;1846;51.482;7.224;2023-06-04T10:51:35;3.90;;;2.30;;
3659;SDS011;1846;51.482;7.224;2023-06-04T10:54:03;2.70;;;2.50;;
3659;SDS011;1846;51.482;7.224;2023-06-04T10:56:30;3.65;;;1.98;;
3659;SDS011;1846;51.482;7.224;2023-06-04T10:58:59;3.85;;;2.45;;
3659;SDS011;1846;51.482;7.224;2023-06-04T11:01:27;2.35;;;2.15;;
3659;SDS011;1846;51.482;7.224;2023-06-04T11:03:56;1.98;;;1.80;;
3659;SDS011;1846;51.482;7.224;2023-06-04T11:06:27;7.13;;;2.05;;
3659;SDS011;1846;51.482;7.224;2023-06-04T11:09:02;2.30;;;2.20;;
3659;SDS011;1846;51.482;7.224;2023-06-04T11:11:30;2.60;;;2.00;;
3659;SDS011;1846;51.482;7.224;2023-06-04T11:14:06;2.90;;;2.42;;
3659;SDS011;1846;51.482;7.224;2023-06-04T11:16:34;2.10;;;2.00;;
3659;SDS011;1846;51.482;7.224;2023-06-04T11:19:01;1.98;;;1.88;;
3659;SDS011;1846;51.482;7.224;2023-06-04T11:21:28;3.67;;;2.00;;
3659;SDS011;1846;51.482;7.224;2023-06-04T11:23:57;4.00;;;2.10;;
3659;SDS011;1846;51.482;7.224;2023-06-04T11:26:30;3.80;;;2.40;;
3659;SDS011;1846;51.482;7.224;2023-06-04T11:28:58;1.98;;;1.88;;
3659;SDS011;1846;51.482;7.224;2023-06-04T11:31:25;2.22;;;2.10;;
3659;SDS011;1846;51.482;7.224;2023-06-04T11:33:52;3.30;;;2.10;;
3659;SDS011;1846;51.482;7.224;2023-06-04T11:36:23;2.45;;;2.25;;
3659;SDS011;1846;51.482;7.224;2023-06-04T11:38:54;3.92;;;2.60;;
3659;SDS011;1846;51.482;7.224;2023-06-04T11:41:22;4.30;;;2.45;;
3659;SDS011;1846;51.482;7.224;2023-06-04T11:43:51;2.80;;;2.20;;
3659;SDS011;1846;51.482;7.224;2023-06-04T11:46:18;2.50;;;2.10;;
3659;SDS011;1846;51.482;7.224;2023-06-04T11:48:47;2.00;;;1.80;;
3659;SDS011;1846;51.482;7.224;2023-06-04T11:51:14;2.50;;;2.20;;
3659;SDS011;1846;51.482;7.224;2023-06-04T11:53:43;2.53;;;2.05;;
3659;SDS011;1846;51.482;7.224;2023-06-04T11:56:10;3.20;;;1.80;;
3659;SDS011;1846;51.482;7.224;2023-06-04T11:58:38;3.40;;;2.30;;
3659;SDS011;1846;51.482;7.224;2023-06-04T12:01:07;3.47;;;2.20;;
3659;SDS011;1846;51.482;7.224;2023-06-04T12:03:35;2.30;;;2.10;;
3659;SDS011;1846;51.482;7.224;2023-06-04T12:06:10;2.10;;;2.00;;
3659;SDS011;1846;51.482;7.224;2023-06-04T12:08:44;4.03;;;2.27;;
3659;SDS011;1846;51.482;7.224;2023-06-04T12:11:25;5.05;;;2.13;;
3659;SDS011;1846;51.482;7.224;2023-06-04T12:13:54;2.08;;;1.88;;
3659;SDS011;1846;51.482;7.224;2023-06-04T12:16:23;2.67;;;1.77;;
3659;SDS011;1846;51.482;7.224;2023-06-04T12:18:51;2.90;;;1.98;;
3659;SDS011;1846;51.482;7.224;2023-06-04T12:21:31;3.80;;;1.90;;
3659;SDS011;1846;51.482;7.224;2023-06-04T12:24:05;4.88;;;2.20;;
3659;SDS011;1846;51.482;7.224;2023-06-04T12:26:33;2.60;;;2.08;;
3659;SDS011;1846;51.482;7.224;2023-06-04T12:29:08;1.70;;;1.60;;
3659;SDS011;1846;51.482;7.224;2023-06-04T12:31:38;3.00;;;1.90;;
3659;SDS011;1846;51.482;7.224;2023-06-04T12:34:05;2.60;;;1.80;;
3659;SDS011;1846;51.482;7.224;2023-06-04T12:36:33;3.15;;;2.00;;
3659;SDS011;1846;51.482;7.224;2023-06-04T12:39:00;2.50;;;1.73;;
3659;SDS011;1846;51.482;7.224;2023-06-04T12:41:28;3.30;;;1.65;;
3659;SDS011;1846;51.482;7.224;2023-06-04T12:43:56;2.30;;;2.10;;
3659;SDS011;1846;51.482;7.224;2023-06-04T12:46:23;2.90;;;1.90;;
3659;SDS011;1846;51.482;7.224;2023-06-04T12:48:52;2.10;;;1.90;;
3659;SDS011;1846;51.482;7.224;2023-06-04T12:51:20;2.67;;;1.70;;
3659;SDS011;1846;51.482;7.224;2023-06-04T12:53:47;2.10;;;1.90;;
3659;SDS011;1846;51.482;7.224;2023-06-04T12:56:14;7.80;;;2.35;;
3659;SDS011;1846;51.482;7.224;2023-06-04T12:58:41;3.15;;;1.98;;
3659;SDS011;1846;51.482;7.224;2023-06-04T13:01:08;2.80;;;2.10;;
3659;SDS011;1846;51.482;7.224;2023-06-04T13:03:36;2.20;;;2.00;;
3659;SDS011;1846;51.482;7.224;2023-06-04T13:06:05;2.40;;;1.65;;
3659;SDS011;1846;51.482;7.224;2023-06-04T13:08:32;3.50;;;1.70;;
3659;SDS011;1846;51.482;7.224;2023-06-04T13:10:59;3.13;;;1.65;;
3659;SDS011;1846;51.482;7.224;2023-06-04T13:13:27;3.10;;;1.67;;
3659;SDS011;1846;51.482;7.224;2023-06-04T13:15:54;2.30;;;2.10;;
3659;SDS011;1846;51.482;7.224;2023-06-04T13:18:22;3.33;;;1.80;;
3659;SDS011;1846;51.482;7.224;2023-06-04T13:20:51;2.70;;;1.70;;
3659;SDS011;1846;51.482;7.224;2023-06-04T13:23:19;1.70;;;1.60;;
3659;SDS011;1846;51.482;7.224;2023-06-04T13:25:46;3.20;;;2.20;;
3659;SDS011;1846;51.482;7.224;2023-06-04T13:28:13;4.45;;;1.50;;
3659;SDS011;1846;51.482;7.224;2023-06-04T13:30:41;5.40;;;1.80;;
3659;SDS011;1846;51.482;7.224;2023-06-04T13:33:08;3.25;;;1.80;;
3659;SDS011;1846;51.482;7.224;2023-06-04T13:35:35;1.90;;;1.70;;
3659;SDS011;1846;51.482;7.224;2023-06-04T13:38:02;7.17;;;2.63;;
3659;SDS011;1846;51.482;7.224;2023-06-04T13:40:33;1.83;;;1.70;;
3659;SDS011;1846;51.482;7.224;2023-06-04T13:43:00;2.10;;;1.75;;
3659;SDS011;1846;51.482;7.224;2023-06-04T13:45:30;2.33;;;1.70;;
3659;SDS011;1846;51.482;7.224;2023-06-04T13:47:57;3.60;;;1.50;;
3659;SDS011;1846;51.482;7.224;2023-06-04T13:50:27;2.00;;;1.80;;
3659;SDS011;1846;51.482;7.224;2023-06-04T13:52:54;4.03;;;1.75;;
3659;SDS011;1846;51.482;7.224;2023-06-04T13:55:21;2.83;;;1.70;;
3659;SDS011;1846;51.482;7.224;2023-06-04T13:57:49;2.20;;;1.70;;
3659;SDS011;1846;51.482;7.224;2023-06-04T14:00:16;1.60;;;1.50;;
3659;SDS011;1846;51.482;7.224;2023-06-04T14:02:43;3.50;;;2.00;;
3659;SDS011;1846;51.482;7.224;2023-06-04T14:05:10;5.45;;;1.77;;
3659;SDS011;1846;51.482;7.224;2023-06-04T14:07:37;2.08;;;1.80;;
3659;SDS011;1846;51.482;7.224;2023-06-04T14:10:04;3.15;;;1.67;;
3659;SDS011;1846;51.482;7.224;2023-06-04T14:12:32;1.90;;;1.30;;
3659;SDS011;1846;51.482;7.224;2023-06-04T14:15:03;3.40;;;1.73;;
3659;SDS011;1846;51.482;7.224;2023-06-04T14:17:31;3.70;;;1.27;;
3659;SDS011;1846;51.482;7.224;2023-06-04T14:19:59;3.75;;;1.50;;
3659;SDS011;1846;51.482;7.224;2023-06-04T14:22:26;1.60;;;1.50;;
3659;SDS011;1846;51.482;7.224;2023-06-04T14:24:53;1.35;;;1.25;;
3659;SDS011;1846;51.482;7.224;2023-06-04T14:27:20;3.60;;;1.90;;
3659;SDS011;1846;51.482;7.224;2023-06-04T14:29:47;2.60;;;1.70;;
3659;SDS011;1846;51.482;7.224;2023-06-04T14:32:15;4.10;;;2.00;;
3659;SDS011;1846;51.482;7.224;2023-06-04T14:34:42;2.90;;;1.70;;
3659;SDS011;1846;51.482;7.224;2023-06-04T14:37:09;1.77;;;1.50;;
3659;SDS011;1846;51.482;7.224;2023-06-04T14:39:36;2.40;;;1.60;;
3659;SDS011;1846;51.482;7.224;2023-06-04T14:42:04;2.33;;;1.60;;
3659;SDS011;1846;51.482;7.224;2023-06-04T14:44:31;1.90;;;1.50;;
3659;SDS011;1846;51.482;7.224;2023-06-04T14:46:58;1.80;;;1.70;;
3659;SDS011;1846;51.482;7.224;2023-06-04T14:49:27;1.70;;;1.60;;
3659;SDS011;1846;51.482;7.224;2023-06-04T14:51:53;3.10;;;1.92;;
3659;SDS011;1846;51.482;7.224;2023-06-04T14:54:21;2.10;;;1.90;;
3659;SDS011;1846;51.482;7.224;2023-06-04T14:56:47;1.90;;;1.80;;
3659;SDS011;1846;51.482;7.224;2023-06-04T14:59:14;2.17;;;2.08;;
3659;SDS011;1846;51.482;7.224;2023-06-04T15:01:41;3.08;;;2.08;;
3659;SDS011;1846;51.482;7.224;2023-06-04T15:04:09;3.90;;;2.53;;
3659;SDS011;1846;51.482;7.224;2023-06-04T15:06:37;2.25;;;2.05;;
3659;SDS011;1846;51.482;7.224;2023-06-04T15:09:06;2.90;;;2.43;;
3659;SDS011;1846;51.482;7.224;2023-06-04T15:11:33;3.78;;;2.60;;
3659;SDS011;1846;51.482;7.224;2023-06-04T15:14:00;3.00;;;2.70;;
3659;SDS011;1846;51.482;7.224;2023-06-04T15:16:27;2.78;;;2.10;;
3659;SDS011;1846;51.482;7.224;2023-06-04T15:18:54;3.83;;;2.50;;
3659;SDS011;1846;51.482;7.224;2023-06-04T15:21:21;2.80;;;2.50;;